Terminal Aerodrome Forecast
Issued by NWS

Home | Current Version | Previous Version | Text Only | Print | Product List | Glossary Off
Versions: 1 2 3 4 5 6 7 8 9 10 11 12 13 14 15 16 17 18 19 20

000
FTUS43 KMPX 271039 AAB
TAFRWF
TAF AMD
KRWF 271039Z 2711/2806 12003KT P6SM SCT250
      TEMPO 2711/2712 1SM BR VV001
     FM271500 31004KT P6SM FEW050 BKN250
     FM280300 20006KT P6SM VCTS SCT050CB BKN120
      TEMPO 2804/2806 4SM SHRA OVC050=

USA.gov is the U.S. government's official web portal to all federal, state and local government web resources and services.